sensor_id;sensor_type;location;lat;lon;timestamp;P1;durP1;ratioP1;P2;durP2;ratioP2
20970;SDS011;10644;48.834;10.088;2023-02-19T00:02:05;6.77;;;5.80;;
20970;SDS011;10644;48.834;10.088;2023-02-19T00:10:21;10.30;;;7.00;;
20970;SDS011;10644;48.834;10.088;2023-02-19T00:12:50;12.57;;;7.37;;
20970;SDS011;10644;48.834;10.088;2023-02-19T00:15:16;8.90;;;7.37;;
20970;SDS011;10644;48.834;10.088;2023-02-19T00:17:41;9.80;;;7.10;;
20970;SDS011;10644;48.834;10.088;2023-02-19T00:20:16;7.40;;;6.30;;
20970;SDS011;10644;48.834;10.088;2023-02-19T00:22:50;9.50;;;6.80;;
20970;SDS011;10644;48.834;10.088;2023-02-19T00:28:07;9.60;;;6.87;;
20970;SDS011;10644;48.834;10.088;2023-02-19T00:30:50;7.70;;;6.40;;
20970;SDS011;10644;48.834;10.088;2023-02-19T00:33:15;7.93;;;6.47;;
20970;SDS011;10644;48.834;10.088;2023-02-19T00:35:43;7.40;;;5.90;;
20970;SDS011;10644;48.834;10.088;2023-02-19T00:38:08;8.83;;;6.73;;
20970;SDS011;10644;48.834;10.088;2023-02-19T00:40:33;11.10;;;7.20;;
20970;SDS011;10644;48.834;10.088;2023-02-19T00:43:17;8.77;;;6.90;;
20970;SDS011;10644;48.834;10.088;2023-02-19T00:46:03;8.70;;;6.70;;
20970;SDS011;10644;48.834;10.088;2023-02-19T00:48:38;11.57;;;7.17;;
20970;SDS011;10644;48.834;10.088;2023-02-19T00:51:12;11.60;;;7.97;;
20970;SDS011;10644;48.834;10.088;2023-02-19T00:53:40;9.90;;;7.27;;
20970;SDS011;10644;48.834;10.088;2023-02-19T00:56:07;8.30;;;7.10;;
20970;SDS011;10644;48.834;10.088;2023-02-19T00:58:32;10.60;;;7.10;;
20970;SDS011;10644;48.834;10.088;2023-02-19T01:00:59;15.07;;;7.80;;
20970;SDS011;10644;48.834;10.088;2023-02-19T01:03:26;10.07;;;7.13;;
20970;SDS011;10644;48.834;10.088;2023-02-19T01:05:52;12.20;;;7.90;;
20970;SDS011;10644;48.834;10.088;2023-02-19T01:08:18;8.93;;;6.50;;
20970;SDS011;10644;48.834;10.088;2023-02-19T01:10:53;10.53;;;7.07;;
20970;SDS011;10644;48.834;10.088;2023-02-19T01:13:19;9.00;;;6.80;;
20970;SDS011;10644;48.834;10.088;2023-02-19T01:15:45;10.30;;;8.10;;
20970;SDS011;10644;48.834;10.088;2023-02-19T01:18:19;11.10;;;7.20;;
20970;SDS011;10644;48.834;10.088;2023-02-19T01:20:55;9.93;;;7.03;;
20970;SDS011;10644;48.834;10.088;2023-02-19T01:23:21;10.57;;;7.60;;
20970;SDS011;10644;48.834;10.088;2023-02-19T01:25:52;8.07;;;6.83;;
20970;SDS011;10644;48.834;10.088;2023-02-19T01:28:19;12.33;;;7.90;;
20970;SDS011;10644;48.834;10.088;2023-02-19T01:31:02;11.27;;;8.70;;
20970;SDS011;10644;48.834;10.088;2023-02-19T01:33:30;13.27;;;8.80;;
20970;SDS011;10644;48.834;10.088;2023-02-19T01:36:01;14.97;;;9.50;;
20970;SDS011;10644;48.834;10.088;2023-02-19T01:44:03;13.20;;;9.10;;
20970;SDS011;10644;48.834;10.088;2023-02-19T01:46:35;12.80;;;8.43;;
20970;SDS011;10644;48.834;10.088;2023-02-19T01:52:01;16.93;;;9.60;;
20970;SDS011;10644;48.834;10.088;2023-02-19T01:54:30;12.33;;;8.10;;
20970;SDS011;10644;48.834;10.088;2023-02-19T01:56:59;16.63;;;9.60;;
20970;SDS011;10644;48.834;10.088;2023-02-19T02:02:38;10.47;;;6.97;;
20970;SDS011;10644;48.834;10.088;2023-02-19T02:05:22;10.90;;;8.30;;
20970;SDS011;10644;48.834;10.088;2023-02-19T02:07:57;14.93;;;8.83;;
20970;SDS011;10644;48.834;10.088;2023-02-19T02:13:48;13.67;;;8.43;;
20970;SDS011;10644;48.834;10.088;2023-02-19T02:22:00;9.30;;;7.17;;
20970;SDS011;10644;48.834;10.088;2023-02-19T02:41:25;10.33;;;6.97;;
20970;SDS011;10644;48.834;10.088;2023-02-19T02:43:57;9.90;;;6.83;;
20970;SDS011;10644;48.834;10.088;2023-02-19T02:49:00;10.47;;;7.07;;
20970;SDS011;10644;48.834;10.088;2023-02-19T02:54:15;9.03;;;6.13;;
20970;SDS011;10644;48.834;10.088;2023-02-19T02:57:06;9.33;;;6.33;;
20970;SDS011;10644;48.834;10.088;2023-02-19T02:59:39;7.70;;;6.33;;
20970;SDS011;10644;48.834;10.088;2023-02-19T03:20:02;12.17;;;6.80;;
20970;SDS011;10644;48.834;10.088;2023-02-19T03:28:04;10.68;;;7.07;;
20970;SDS011;10644;48.834;10.088;2023-02-19T03:30:37;8.87;;;5.90;;
20970;SDS011;10644;48.834;10.088;2023-02-19T03:33:08;12.67;;;6.37;;
20970;SDS011;10644;48.834;10.088;2023-02-19T03:35:49;9.13;;;6.00;;
20970;SDS011;10644;48.834;10.088;2023-02-19T03:44:28;9.20;;;5.90;;
20970;SDS011;10644;48.834;10.088;2023-02-19T03:47:22;8.52;;;5.93;;
20970;SDS011;10644;48.834;10.088;2023-02-19T03:52:47;10.80;;;5.80;;
20970;SDS011;10644;48.834;10.088;2023-02-19T03:58:13;6.43;;;5.43;;
20970;SDS011;10644;48.834;10.088;2023-02-19T04:04:40;6.15;;;4.88;;
20970;SDS011;10644;48.834;10.088;2023-02-19T04:07:00;8.87;;;5.10;;
20970;SDS011;10644;48.834;10.088;2023-02-19T04:12:11;6.87;;;5.50;;
20970;SDS011;10644;48.834;10.088;2023-02-19T04:17:49;7.13;;;5.43;;
20970;SDS011;10644;48.834;10.088;2023-02-19T04:20:20;6.15;;;4.45;;
20970;SDS011;10644;48.834;10.088;2023-02-19T04:25:55;6.38;;;3.97;;
20970;SDS011;10644;48.834;10.088;2023-02-19T04:28:24;6.07;;;4.80;;
20970;SDS011;10644;48.834;10.088;2023-02-19T04:30:49;5.40;;;3.77;;
20970;SDS011;10644;48.834;10.088;2023-02-19T04:33:16;6.40;;;4.17;;
20970;SDS011;10644;48.834;10.088;2023-02-19T04:38:27;5.00;;;3.10;;
20970;SDS011;10644;48.834;10.088;2023-02-19T04:40:59;7.22;;;3.08;;
20970;SDS011;10644;48.834;10.088;2023-02-19T04:46:16;3.92;;;3.13;;
20970;SDS011;10644;48.834;10.088;2023-02-19T04:51:14;1.80;;;1.67;;
20970;SDS011;10644;48.834;10.088;2023-02-19T04:53:45;3.83;;;1.63;;
20970;SDS011;10644;48.834;10.088;2023-02-19T04:56:14;2.95;;;1.75;;
20970;SDS011;10644;48.834;10.088;2023-02-19T05:01:38;2.50;;;1.80;;
20970;SDS011;10644;48.834;10.088;2023-02-19T05:04:06;3.87;;;1.50;;
20970;SDS011;10644;48.834;10.088;2023-02-19T05:06:41;1.43;;;1.23;;
20970;SDS011;10644;48.834;10.088;2023-02-19T05:09:20;1.88;;;1.30;;
20970;SDS011;10644;48.834;10.088;2023-02-19T05:11:53;1.70;;;1.00;;
20970;SDS011;10644;48.834;10.088;2023-02-19T05:17:18;2.10;;;0.93;;
20970;SDS011;10644;48.834;10.088;2023-02-19T05:19:51;1.60;;;0.83;;
20970;SDS011;10644;48.834;10.088;2023-02-19T05:22:19;1.30;;;0.75;;
20970;SDS011;10644;48.834;10.088;2023-02-19T05:24:49;1.23;;;0.87;;
20970;SDS011;10644;48.834;10.088;2023-02-19T05:27:14;2.00;;;0.73;;
20970;SDS011;10644;48.834;10.088;2023-02-19T05:29:45;1.13;;;0.70;;
20970;SDS011;10644;48.834;10.088;2023-02-19T05:37:39;4.45;;;1.15;;
20970;SDS011;10644;48.834;10.088;2023-02-19T05:40:07;3.45;;;1.17;;
20970;SDS011;10644;48.834;10.088;2023-02-19T05:42:34;1.55;;;0.70;;
20970;SDS011;10644;48.834;10.088;2023-02-19T05:45:03;3.40;;;0.90;;
20970;SDS011;10644;48.834;10.088;2023-02-19T05:47:29;1.70;;;0.77;;
20970;SDS011;10644;48.834;10.088;2023-02-19T05:52:49;1.30;;;0.75;;
20970;SDS011;10644;48.834;10.088;2023-02-19T05:55:16;2.50;;;1.00;;
20970;SDS011;10644;48.834;10.088;2023-02-19T05:57:53;1.30;;;0.73;;
20970;SDS011;10644;48.834;10.088;2023-02-19T06:00:33;1.65;;;1.00;;
20970;SDS011;10644;48.834;10.088;2023-02-19T06:03:08;1.88;;;0.80;;
20970;SDS011;10644;48.834;10.088;2023-02-19T06:05:33;4.00;;;1.52;;
20970;SDS011;10644;48.834;10.088;2023-02-19T06:07:59;1.67;;;1.00;;
20970;SDS011;10644;48.834;10.088;2023-02-19T06:10:36;5.75;;;1.52;;
20970;SDS011;10644;48.834;10.088;2023-02-19T06:13:14;5.13;;;1.60;;
20970;SDS011;10644;48.834;10.088;2023-02-19T06:18:33;3.35;;;1.33;;
20970;SDS011;10644;48.834;10.088;2023-02-19T06:21:05;3.60;;;1.50;;
20970;SDS011;10644;48.834;10.088;2023-02-19T06:23:34;4.35;;;1.73;;
20970;SDS011;10644;48.834;10.088;2023-02-19T06:26:05;2.88;;;1.60;;
20970;SDS011;10644;48.834;10.088;2023-02-19T06:28:51;3.17;;;1.10;;
20970;SDS011;10644;48.834;10.088;2023-02-19T06:36:38;3.72;;;1.30;;
20970;SDS011;10644;48.834;10.088;2023-02-19T06:39:08;2.00;;;1.20;;
20970;SDS011;10644;48.834;10.088;2023-02-19T06:44:23;3.60;;;1.50;;
20970;SDS011;10644;48.834;10.088;2023-02-19T06:47:03;6.77;;;5.20;;
20970;SDS011;10644;48.834;10.088;2023-02-19T06:49:34;5.85;;;1.65;;
20970;SDS011;10644;48.834;10.088;2023-02-19T06:52:10;4.32;;;1.58;;
20970;SDS011;10644;48.834;10.088;2023-02-19T06:54:45;2.40;;;1.07;;
20970;SDS011;10644;48.834;10.088;2023-02-19T06:57:16;5.10;;;1.80;;
20970;SDS011;10644;48.834;10.088;2023-02-19T06:59:53;2.83;;;1.55;;
20970;SDS011;10644;48.834;10.088;2023-02-19T07:02:28;3.93;;;1.53;;
20970;SDS011;10644;48.834;10.088;2023-02-19T07:05:03;6.10;;;1.65;;
20970;SDS011;10644;48.834;10.088;2023-02-19T07:13:28;5.22;;;1.50;;
20970;SDS011;10644;48.834;10.088;2023-02-19T07:15:59;2.00;;;1.17;;
20970;SDS011;10644;48.834;10.088;2023-02-19T07:18:30;5.20;;;1.80;;
20970;SDS011;10644;48.834;10.088;2023-02-19T07:21:06;2.75;;;0.90;;
20970;SDS011;10644;48.834;10.088;2023-02-19T07:23:42;2.45;;;1.02;;
20970;SDS011;10644;48.834;10.088;2023-02-19T07:26:13;2.30;;;1.00;;
20970;SDS011;10644;48.834;10.088;2023-02-19T07:28:48;3.10;;;1.30;;
20970;SDS011;10644;48.834;10.088;2023-02-19T07:31:15;6.47;;;1.50;;
20970;SDS011;10644;48.834;10.088;2023-02-19T07:34:00;4.10;;;1.10;;
20970;SDS011;10644;48.834;10.088;2023-02-19T07:36:26;3.23;;;1.37;;
20970;SDS011;10644;48.834;10.088;2023-02-19T07:38:55;3.40;;;0.97;;
20970;SDS011;10644;48.834;10.088;2023-02-19T07:44:11;2.47;;;0.80;;
20970;SDS011;10644;48.834;10.088;2023-02-19T07:46:41;2.00;;;0.97;;
20970;SDS011;10644;48.834;10.088;2023-02-19T07:49:09;2.90;;;1.20;;
20970;SDS011;10644;48.834;10.088;2023-02-19T07:51:40;3.83;;;1.07;;
20970;SDS011;10644;48.834;10.088;2023-02-19T07:54:18;1.40;;;0.90;;
20970;SDS011;10644;48.834;10.088;2023-02-19T07:56:44;2.23;;;1.00;;
20970;SDS011;10644;48.834;10.088;2023-02-19T07:59:11;2.50;;;1.00;;
20970;SDS011;10644;48.834;10.088;2023-02-19T08:01:37;1.73;;;1.33;;
20970;SDS011;10644;48.834;10.088;2023-02-19T08:04:30;2.60;;;1.20;;
20970;SDS011;10644;48.834;10.088;2023-02-19T08:07:09;7.68;;;2.08;;
20970;SDS011;10644;48.834;10.088;2023-02-19T08:09:36;3.38;;;1.60;;
20970;SDS011;10644;48.834;10.088;2023-02-19T08:12:02;4.90;;;1.60;;
20970;SDS011;10644;48.834;10.088;2023-02-19T08:14:47;3.43;;;1.40;;
20970;SDS011;10644;48.834;10.088;2023-02-19T08:17:12;2.80;;;1.63;;
20970;SDS011;10644;48.834;10.088;2023-02-19T08:19:38;2.73;;;1.40;;
20970;SDS011;10644;48.834;10.088;2023-02-19T08:22:03;2.60;;;1.20;;
20970;SDS011;10644;48.834;10.088;2023-02-19T08:24:34;3.07;;;1.13;;
20970;SDS011;10644;48.834;10.088;2023-02-19T08:27:08;5.23;;;2.00;;
20970;SDS011;10644;48.834;10.088;2023-02-19T08:32:15;2.60;;;1.27;;
20970;SDS011;10644;48.834;10.088;2023-02-19T08:34:56;2.70;;;1.43;;
20970;SDS011;10644;48.834;10.088;2023-02-19T08:39:56;2.70;;;1.20;;
20970;SDS011;10644;48.834;10.088;2023-02-19T08:42:22;4.63;;;1.90;;
20970;SDS011;10644;48.834;10.088;2023-02-19T08:44:47;3.97;;;1.60;;
20970;SDS011;10644;48.834;10.088;2023-02-19T08:47:22;5.27;;;2.13;;
20970;SDS011;10644;48.834;10.088;2023-02-19T08:49:49;3.00;;;1.23;;
20970;SDS011;10644;48.834;10.088;2023-02-19T08:52:29;4.60;;;2.20;;
20970;SDS011;10644;48.834;10.088;2023-02-19T08:54:57;2.00;;;1.23;;
20970;SDS011;10644;48.834;10.088;2023-02-19T08:57:29;2.23;;;1.57;;
20970;SDS011;10644;48.834;10.088;2023-02-19T08:59:57;3.37;;;1.73;;
20970;SDS011;10644;48.834;10.088;2023-02-19T09:05:13;3.97;;;1.53;;
20970;SDS011;10644;48.834;10.088;2023-02-19T09:13:30;3.60;;;1.98;;
20970;SDS011;10644;48.834;10.088;2023-02-19T09:16:09;3.60;;;2.10;;
20970;SDS011;10644;48.834;10.088;2023-02-19T09:24:07;6.40;;;1.93;;
20970;SDS011;10644;48.834;10.088;2023-02-19T09:26:40;2.05;;;1.85;;
20970;SDS011;10644;48.834;10.088;2023-02-19T09:29:05;5.80;;;2.23;;
20970;SDS011;10644;48.834;10.088;2023-02-19T09:31:32;2.13;;;1.87;;
20970;SDS011;10644;48.834;10.088;2023-02-19T09:34:01;1.75;;;1.48;;
20970;SDS011;10644;48.834;10.088;2023-02-19T09:36:28;2.70;;;1.90;;
20970;SDS011;10644;48.834;10.088;2023-02-19T09:38:53;1.70;;;1.60;;
20970;SDS011;10644;48.834;10.088;2023-02-19T09:44:00;3.87;;;2.07;;
20970;SDS011;10644;48.834;10.088;2023-02-19T09:46:31;3.93;;;1.60;;
20970;SDS011;10644;48.834;10.088;2023-02-19T09:49:04;1.47;;;1.30;;
20970;SDS011;10644;48.834;10.088;2023-02-19T09:51:33;3.50;;;1.50;;
20970;SDS011;10644;48.834;10.088;2023-02-19T09:54:01;2.70;;;1.60;;
20970;SDS011;10644;48.834;10.088;2023-02-19T09:56:46;2.50;;;1.97;;
20970;SDS011;10644;48.834;10.088;2023-02-19T10:02:10;2.23;;;1.47;;
20970;SDS011;10644;48.834;10.088;2023-02-19T10:04:40;2.53;;;1.80;;
20970;SDS011;10644;48.834;10.088;2023-02-19T10:07:19;2.30;;;1.73;;
20970;SDS011;10644;48.834;10.088;2023-02-19T10:09:59;3.17;;;2.23;;
20970;SDS011;10644;48.834;10.088;2023-02-19T10:12:49;1.97;;;1.83;;
20970;SDS011;10644;48.834;10.088;2023-02-19T10:21:24;1.63;;;1.30;;
20970;SDS011;10644;48.834;10.088;2023-02-19T10:24:00;2.60;;;1.60;;
20970;SDS011;10644;48.834;10.088;2023-02-19T10:26:29;4.53;;;2.87;;
20970;SDS011;10644;48.834;10.088;2023-02-19T10:29:03;4.90;;;2.05;;
20970;SDS011;10644;48.834;10.088;2023-02-19T10:34:20;2.23;;;1.70;;
20970;SDS011;10644;48.834;10.088;2023-02-19T10:36:49;2.93;;;1.90;;
20970;SDS011;10644;48.834;10.088;2023-02-19T10:42:23;4.33;;;1.80;;
20970;SDS011;10644;48.834;10.088;2023-02-19T10:44:59;7.07;;;1.80;;
20970;SDS011;10644;48.834;10.088;2023-02-19T10:47:30;3.73;;;1.80;;
20970;SDS011;10644;48.834;10.088;2023-02-19T10:49:59;3.00;;;1.57;;
20970;SDS011;10644;48.834;10.088;2023-02-19T10:52:31;5.60;;;2.50;;
20970;SDS011;10644;48.834;10.088;2023-02-19T10:55:23;4.10;;;2.00;;
20970;SDS011;10644;48.834;10.088;2023-02-19T10:57:52;2.27;;;1.20;;
20970;SDS011;10644;48.834;10.088;2023-02-19T11:00:21;1.40;;;0.97;;
20970;SDS011;10644;48.834;10.088;2023-02-19T11:06:00;1.50;;;1.33;;
20970;SDS011;10644;48.834;10.088;2023-02-19T11:09:00;1.57;;;1.30;;
20970;SDS011;10644;48.834;10.088;2023-02-19T11:14:25;5.00;;;2.00;;
20970;SDS011;10644;48.834;10.088;2023-02-19T11:16:53;5.10;;;1.65;;
20970;SDS011;10644;48.834;10.088;2023-02-19T11:19:22;2.27;;;1.23;;
20970;SDS011;10644;48.834;10.088;2023-02-19T11:21:58;4.30;;;1.50;;
20970;SDS011;10644;48.834;10.088;2023-02-19T11:27:03;4.00;;;1.70;;
20970;SDS011;10644;48.834;10.088;2023-02-19T11:37:51;4.20;;;1.70;;
20970;SDS011;10644;48.834;10.088;2023-02-19T11:51:50;3.30;;;2.03;;
20970;SDS011;10644;48.834;10.088;2023-02-19T11:58:00;3.40;;;1.50;;
20970;SDS011;10644;48.834;10.088;2023-02-19T12:01:06;2.37;;;1.27;;
20970;SDS011;10644;48.834;10.088;2023-02-19T12:19:25;5.87;;;1.80;;
20970;SDS011;10644;48.834;10.088;2023-02-19T12:22:31;8.17;;;1.97;;
20970;SDS011;10644;48.834;10.088;2023-02-19T12:31:20;2.80;;;1.63;;
20970;SDS011;10644;48.834;10.088;2023-02-19T12:37:46;3.10;;;1.40;;
20970;SDS011;10644;48.834;10.088;2023-02-19T12:43:35;3.60;;;1.73;;
20970;SDS011;10644;48.834;10.088;2023-02-19T12:52:13;5.43;;;2.00;;
20970;SDS011;10644;48.834;10.088;2023-02-19T12:54:43;3.03;;;1.33;;
20970;SDS011;10644;48.834;10.088;2023-02-19T12:57:13;3.87;;;1.60;;
20970;SDS011;10644;48.834;10.088;2023-02-19T13:14:33;3.77;;;1.40;;
20970;SDS011;10644;48.834;10.088;2023-02-19T13:43:54;8.13;;;1.57;;
20970;SDS011;10644;48.834;10.088;2023-02-19T13:46:36;3.83;;;1.50;;
20970;SDS011;10644;48.834;10.088;2023-02-19T13:52:00;3.60;;;1.57;;
20970;SDS011;10644;48.834;10.088;2023-02-19T13:54:28;2.23;;;1.20;;
20970;SDS011;10644;48.834;10.088;2023-02-19T13:59:55;2.40;;;1.40;;
20970;SDS011;10644;48.834;10.088;2023-02-19T14:02:31;2.90;;;1.30;;
20970;SDS011;10644;48.834;10.088;2023-02-19T14:05:07;4.43;;;1.70;;
20970;SDS011;10644;48.834;10.088;2023-02-19T14:14:01;6.07;;;1.50;;
20970;SDS011;10644;48.834;10.088;2023-02-19T14:34:18;3.90;;;1.63;;
20970;SDS011;10644;48.834;10.088;2023-02-19T14:36:52;3.60;;;1.43;;
20970;SDS011;10644;48.834;10.088;2023-02-19T14:42:23;6.10;;;1.70;;
20970;SDS011;10644;48.834;10.088;2023-02-19T14:45:03;3.37;;;1.57;;
20970;SDS011;10644;48.834;10.088;2023-02-19T14:47:34;6.10;;;1.57;;
20970;SDS011;10644;48.834;10.088;2023-02-19T14:52:35;4.13;;;1.60;;
20970;SDS011;10644;48.834;10.088;2023-02-19T14:57:47;3.73;;;1.53;;
20970;SDS011;10644;48.834;10.088;2023-02-19T15:08:23;2.60;;;1.70;;
20970;SDS011;10644;48.834;10.088;2023-02-19T15:14:04;2.57;;;1.60;;
20970;SDS011;10644;48.834;10.088;2023-02-19T15:16:41;3.50;;;1.67;;
20970;SDS011;10644;48.834;10.088;2023-02-19T15:19:08;6.00;;;1.70;;
20970;SDS011;10644;48.834;10.088;2023-02-19T15:21:36;7.67;;;2.07;;
20970;SDS011;10644;48.834;10.088;2023-02-19T15:24:14;2.33;;;1.47;;
20970;SDS011;10644;48.834;10.088;2023-02-19T15:34:57;3.63;;;2.17;;
20970;SDS011;10644;48.834;10.088;2023-02-19T15:37:45;4.57;;;2.00;;
20970;SDS011;10644;48.834;10.088;2023-02-19T15:40:15;4.50;;;2.00;;
20970;SDS011;10644;48.834;10.088;2023-02-19T15:42:42;3.03;;;2.10;;
20970;SDS011;10644;48.834;10.088;2023-02-19T15:45:26;3.50;;;1.93;;
20970;SDS011;10644;48.834;10.088;2023-02-19T15:51:14;5.20;;;2.40;;
20970;SDS011;10644;48.834;10.088;2023-02-19T15:53:56;5.40;;;2.63;;
20970;SDS011;10644;48.834;10.088;2023-02-19T15:56:31;2.77;;;2.23;;
20970;SDS011;10644;48.834;10.088;2023-02-19T16:02:20;9.00;;;2.90;;
20970;SDS011;10644;48.834;10.088;2023-02-19T16:04:45;4.30;;;2.60;;
20970;SDS011;10644;48.834;10.088;2023-02-19T16:07:29;10.93;;;5.20;;
20970;SDS011;10644;48.834;10.088;2023-02-19T16:12:57;6.50;;;2.40;;
20970;SDS011;10644;48.834;10.088;2023-02-19T16:15:24;8.37;;;4.23;;
20970;SDS011;10644;48.834;10.088;2023-02-19T16:17:52;9.35;;;3.42;;
20970;SDS011;10644;48.834;10.088;2023-02-19T16:23:12;4.33;;;3.23;;
20970;SDS011;10644;48.834;10.088;2023-02-19T16:25:42;9.03;;;3.60;;
20970;SDS011;10644;48.834;10.088;2023-02-19T16:28:22;11.43;;;4.83;;
20970;SDS011;10644;48.834;10.088;2023-02-19T16:39:16;6.10;;;4.23;;
20970;SDS011;10644;48.834;10.088;2023-02-19T16:46:56;6.83;;;4.10;;
20970;SDS011;10644;48.834;10.088;2023-02-19T16:49:22;7.37;;;4.33;;
20970;SDS011;10644;48.834;10.088;2023-02-19T16:51:49;10.30;;;4.30;;
20970;SDS011;10644;48.834;10.088;2023-02-19T16:54:15;7.37;;;4.30;;
20970;SDS011;10644;48.834;10.088;2023-02-19T16:56:40;7.23;;;3.83;;
20970;SDS011;10644;48.834;10.088;2023-02-19T16:59:06;11.70;;;3.70;;
20970;SDS011;10644;48.834;10.088;2023-02-19T17:04:03;7.88;;;3.15;;
20970;SDS011;10644;48.834;10.088;2023-02-19T17:06:33;9.10;;;3.97;;
20970;SDS011;10644;48.834;10.088;2023-02-19T17:09:08;7.33;;;2.87;;
20970;SDS011;10644;48.834;10.088;2023-02-19T17:11:38;7.35;;;3.80;;
20970;SDS011;10644;48.834;10.088;2023-02-19T17:16:51;5.50;;;3.10;;
20970;SDS011;10644;48.834;10.088;2023-02-19T17:19:20;9.70;;;3.93;;
20970;SDS011;10644;48.834;10.088;2023-02-19T17:21:46;8.13;;;3.70;;
20970;SDS011;10644;48.834;10.088;2023-02-19T17:24:13;8.43;;;3.83;;
20970;SDS011;10644;48.834;10.088;2023-02-19T17:26:43;14.83;;;4.23;;
20970;SDS011;10644;48.834;10.088;2023-02-19T17:29:10;6.30;;;3.33;;
20970;SDS011;10644;48.834;10.088;2023-02-19T17:31:43;3.63;;;2.97;;
20970;SDS011;10644;48.834;10.088;2023-02-19T17:34:24;6.77;;;3.53;;
20970;SDS011;10644;48.834;10.088;2023-02-19T17:39:48;8.53;;;4.43;;
20970;SDS011;10644;48.834;10.088;2023-02-19T17:42:17;7.70;;;4.00;;
20970;SDS011;10644;48.834;10.088;2023-02-19T17:44:43;10.20;;;4.80;;
20970;SDS011;10644;48.834;10.088;2023-02-19T17:47:20;7.17;;;3.90;;
20970;SDS011;10644;48.834;10.088;2023-02-19T17:49:45;9.63;;;4.20;;
20970;SDS011;10644;48.834;10.088;2023-02-19T17:52:29;6.97;;;3.80;;
20970;SDS011;10644;48.834;10.088;2023-02-19T17:54:55;9.37;;;4.50;;
20970;SDS011;10644;48.834;10.088;2023-02-19T17:57:33;8.80;;;4.47;;
20970;SDS011;10644;48.834;10.088;2023-02-19T17:59:59;7.23;;;4.43;;
20970;SDS011;10644;48.834;10.088;2023-02-19T18:05:33;8.23;;;3.70;;
20970;SDS011;10644;48.834;10.088;2023-02-19T18:08:06;7.32;;;4.10;;
20970;SDS011;10644;48.834;10.088;2023-02-19T18:10:32;11.43;;;3.20;;
20970;SDS011;10644;48.834;10.088;2023-02-19T18:12:58;8.40;;;3.53;;
20970;SDS011;10644;48.834;10.088;2023-02-19T18:15:24;4.53;;;3.10;;
20970;SDS011;10644;48.834;10.088;2023-02-19T18:17:56;4.82;;;3.05;;
20970;SDS011;10644;48.834;10.088;2023-02-19T18:20:25;5.87;;;4.13;;
20970;SDS011;10644;48.834;10.088;2023-02-19T18:22:52;7.77;;;3.10;;
20970;SDS011;10644;48.834;10.088;2023-02-19T18:25:21;9.50;;;4.80;;
20970;SDS011;10644;48.834;10.088;2023-02-19T18:27:48;5.73;;;4.60;;
20970;SDS011;10644;48.834;10.088;2023-02-19T18:30:16;5.60;;;3.70;;
20970;SDS011;10644;48.834;10.088;2023-02-19T18:32:44;4.37;;;2.70;;
20970;SDS011;10644;48.834;10.088;2023-02-19T18:35:15;6.77;;;3.50;;
20970;SDS011;10644;48.834;10.088;2023-02-19T18:38:00;4.50;;;3.30;;
20970;SDS011;10644;48.834;10.088;2023-02-19T18:40:28;7.93;;;4.27;;
20970;SDS011;10644;48.834;10.088;2023-02-19T18:42:59;8.40;;;3.90;;
20970;SDS011;10644;48.834;10.088;2023-02-19T18:45:27;13.80;;;5.00;;
20970;SDS011;10644;48.834;10.088;2023-02-19T18:48:04;5.23;;;3.50;;
20970;SDS011;10644;48.834;10.088;2023-02-19T18:50:34;6.80;;;3.97;;
20970;SDS011;10644;48.834;10.088;2023-02-19T18:55:33;6.57;;;3.87;;
20970;SDS011;10644;48.834;10.088;2023-02-19T18:58:02;5.77;;;3.17;;
20970;SDS011;10644;48.834;10.088;2023-02-19T19:00:28;6.60;;;3.90;;
20970;SDS011;10644;48.834;10.088;2023-02-19T19:02:59;6.27;;;3.77;;
20970;SDS011;10644;48.834;10.088;2023-02-19T19:05:41;4.80;;;2.83;;
20970;SDS011;10644;48.834;10.088;2023-02-19T19:08:08;7.57;;;3.13;;
20970;SDS011;10644;48.834;10.088;2023-02-19T19:14:02;9.50;;;4.50;;
20970;SDS011;10644;48.834;10.088;2023-02-19T19:16:29;8.75;;;4.20;;
20970;SDS011;10644;48.834;10.088;2023-02-19T19:18:55;9.23;;;3.70;;
20970;SDS011;10644;48.834;10.088;2023-02-19T19:21:22;7.80;;;2.40;;
20970;SDS011;10644;48.834;10.088;2023-02-19T19:23:49;4.10;;;2.60;;
20970;SDS011;10644;48.834;10.088;2023-02-19T19:26:22;4.83;;;2.70;;
20970;SDS011;10644;48.834;10.088;2023-02-19T19:28:47;11.73;;;3.90;;
20970;SDS011;10644;48.834;10.088;2023-02-19T19:31:32;6.47;;;3.03;;
20970;SDS011;10644;48.834;10.088;2023-02-19T19:34:03;10.47;;;3.53;;
20970;SDS011;10644;48.834;10.088;2023-02-19T19:36:39;11.50;;;3.30;;
20970;SDS011;10644;48.834;10.088;2023-02-19T19:39:06;10.87;;;3.50;;
20970;SDS011;10644;48.834;10.088;2023-02-19T19:41:39;4.70;;;2.72;;
20970;SDS011;10644;48.834;10.088;2023-02-19T19:44:11;4.70;;;2.70;;
20970;SDS011;10644;48.834;10.088;2023-02-19T19:46:43;8.07;;;3.50;;
20970;SDS011;10644;48.834;10.088;2023-02-19T19:49:18;5.63;;;3.10;;
20970;SDS011;10644;48.834;10.088;2023-02-19T19:51:44;10.00;;;3.40;;
20970;SDS011;10644;48.834;10.088;2023-02-19T19:54:11;8.30;;;3.03;;
20970;SDS011;10644;48.834;10.088;2023-02-19T19:56:40;9.50;;;3.23;;
20970;SDS011;10644;48.834;10.088;2023-02-19T19:59:15;4.73;;;2.80;;
20970;SDS011;10644;48.834;10.088;2023-02-19T20:04:27;15.03;;;4.50;;
20970;SDS011;10644;48.834;10.088;2023-02-19T20:06:54;6.60;;;3.43;;
20970;SDS011;10644;48.834;10.088;2023-02-19T20:12:14;8.73;;;3.42;;
20970;SDS011;10644;48.834;10.088;2023-02-19T20:14:42;5.07;;;3.80;;
20970;SDS011;10644;48.834;10.088;2023-02-19T20:17:11;8.30;;;3.80;;
20970;SDS011;10644;48.834;10.088;2023-02-19T20:19:40;7.13;;;3.57;;
20970;SDS011;10644;48.834;10.088;2023-02-19T20:22:06;6.73;;;3.50;;
20970;SDS011;10644;48.834;10.088;2023-02-19T20:24:34;7.30;;;4.10;;
20970;SDS011;10644;48.834;10.088;2023-02-19T20:27:02;6.93;;;3.45;;
20970;SDS011;10644;48.834;10.088;2023-02-19T20:29:28;11.93;;;3.63;;
20970;SDS011;10644;48.834;10.088;2023-02-19T20:32:05;8.93;;;3.80;;
20970;SDS011;10644;48.834;10.088;2023-02-19T20:37:19;8.23;;;3.23;;
20970;SDS011;10644;48.834;10.088;2023-02-19T20:39:52;10.05;;;3.83;;
20970;SDS011;10644;48.834;10.088;2023-02-19T20:45:07;8.90;;;3.67;;
20970;SDS011;10644;48.834;10.088;2023-02-19T20:50:05;10.60;;;3.80;;
20970;SDS011;10644;48.834;10.088;2023-02-19T20:52:42;7.23;;;3.27;;
20970;SDS011;10644;48.834;10.088;2023-02-19T20:57:55;5.60;;;3.63;;
20970;SDS011;10644;48.834;10.088;2023-02-19T21:00:20;6.03;;;3.10;;
20970;SDS011;10644;48.834;10.088;2023-02-19T21:02:46;5.83;;;3.23;;
20970;SDS011;10644;48.834;10.088;2023-02-19T21:05:15;9.07;;;3.67;;
20970;SDS011;10644;48.834;10.088;2023-02-19T21:07:52;6.78;;;3.45;;
20970;SDS011;10644;48.834;10.088;2023-02-19T21:10:20;9.87;;;3.73;;
20970;SDS011;10644;48.834;10.088;2023-02-19T21:15:27;3.70;;;3.27;;
20970;SDS011;10644;48.834;10.088;2023-02-19T21:18:06;9.33;;;3.33;;
20970;SDS011;10644;48.834;10.088;2023-02-19T21:23:37;9.80;;;3.90;;
20970;SDS011;10644;48.834;10.088;2023-02-19T21:26:11;4.90;;;3.42;;
20970;SDS011;10644;48.834;10.088;2023-02-19T21:31:12;8.87;;;4.30;;
20970;SDS011;10644;48.834;10.088;2023-02-19T21:41:42;8.70;;;3.77;;
20970;SDS011;10644;48.834;10.088;2023-02-19T21:44:11;8.95;;;4.75;;
20970;SDS011;10644;48.834;10.088;2023-02-19T21:46:38;7.45;;;3.83;;
20970;SDS011;10644;48.834;10.088;2023-02-19T21:49:10;7.35;;;4.15;;
20970;SDS011;10644;48.834;10.088;2023-02-19T21:51:40;10.43;;;4.00;;
20970;SDS011;10644;48.834;10.088;2023-02-19T21:54:07;7.53;;;4.53;;
20970;SDS011;10644;48.834;10.088;2023-02-19T22:02:12;7.70;;;4.60;;
20970;SDS011;10644;48.834;10.088;2023-02-19T22:04:37;9.83;;;4.30;;